X  Zamknij Lotniskowe dane METAR     EDTY Adolf Würth Airport
Temperatura
6°C Temperatura
5°C Punkt rosy
93% Wilgotność



Wiatr
16 KM/H
10 MPH
4 M/S
9 KTS



290°
WNW
Warunki bieżące

Zachmurzenie całkowite Zachmurzenie całkowite
Ciśnienie 1013.88 (hPa) - 29.94 (inHg)
Widoczność 6 (mil) - 9.7 (km)
Lotnisko
Kod lotniska EDTY

Położenie: Adolf Würth Airport
Odległość: 59 (km)

Metar:
EDTY 051320Z 29009KT 9999 OVC010 06/05 Q1014

Czas: 05-03-2024 14:20 CET